Time;durP1;ratioP1;P1;durP2;ratioP2;P2;SDS_P1;SDS_P2;PMS_P1;PMS_P2;Temp;Humidity;BMP_temperature;BMP_pressure;BME280_temperature;BME280_humidity;BME280_pressure;Samples;Min_cycle;Max_cycle;Signal;HPM_P1;HPM_P2
2022/01/12 00:00:18;;;;;;;8.35;2.25;;;;;;;;;;5000736;28;20037;-67
2022/01/12 00:02:45;;;;;;;8.35;2.20;;;;;;;;;;5000953;28;20116;-67
2022/01/12 00:05:13;;;;;;;10.50;2.15;;;;;;;;;;4997357;28;20565;-67
2022/01/12 00:07:40;;;;;;;9.88;1.88;;;;;;;;;;5001726;28;20030;-67
2022/01/12 00:10:07;;;;;;;11.43;1.60;;;;;;;;;;4997076;28;20037;-67
2022/01/12 00:12:34;;;;;;;13.30;2.92;;;;;;;;;;4993791;28;20030;-67
2022/01/12 00:15:01;;;;;;;12.75;2.28;;;;;;;;;;4992077;28;20034;-67
2022/01/12 00:17:31;;;;;;;15.35;2.15;;;;;;;;;;4991805;28;20033;-67
2022/01/12 00:19:58;;;;;;;13.85;2.55;;;;;;;;;;4995682;28;20041;-68
2022/01/12 00:22:26;;;;;;;11.32;2.78;;;;;;;;;;4993538;28;20060;-68
2022/01/12 00:33:14;;;;;;;15.23;2.40;;;;;;;;;;5001922;28;20084;-69
2022/01/12 00:35:41;;;;;;;10.88;2.30;;;;;;;;;;4992133;28;20026;-67
2022/01/12 00:38:11;;;;;;;10.70;2.00;;;;;;;;;;5004344;28;20023;-69
2022/01/12 00:40:42;;;;;;;18.10;2.85;;;;;;;;;;4999351;28;20030;-69
2022/01/12 00:43:09;;;;;;;26.40;3.07;;;;;;;;;;4993752;28;20843;-70
2022/01/12 00:45:45;;;;;;;10.88;2.72;;;;;;;;;;4997935;28;20112;-70
2022/01/12 00:48:12;;;;;;;11.93;2.28;;;;;;;;;;5005376;28;20105;-67
2022/01/12 00:50:40;;;;;;;13.30;2.42;;;;;;;;;;5002874;28;20440;-68
2022/01/12 00:53:07;;;;;;;16.25;2.50;;;;;;;;;;5011820;28;20042;-68
2022/01/12 00:55:34;;;;;;;10.90;2.00;;;;;;;;;;5019722;28;20473;-68
2022/01/12 00:58:02;;;;;;;14.57;2.95;;;;;;;;;;5020513;28;20072;-69
2022/01/12 01:00:29;;;;;;;18.85;3.58;;;;;;;;;;5019554;28;20033;-69
2022/01/12 01:02:56;;;;;;;20.25;2.65;;;;;;;;;;5018710;28;20029;-69
2022/01/12 01:05:25;;;;;;;20.95;2.60;;;;;;;;;;5009517;28;20132;-68
2022/01/12 01:07:53;;;;;;;23.58;3.05;;;;;;;;;;5024568;28;20061;-69
2022/01/12 01:13:06;;;;;;;33.58;4.35;;;;;;;;;;5011228;28;20088;-69
2022/01/12 01:26:32;;;;;;;27.40;4.03;;;;;;;;;;5011546;28;20165;-67
2022/01/12 01:28:59;;;;;;;54.15;5.13;;;;;;;;;;5008988;28;20113;-68
2022/01/12 01:31:31;;;;;;;41.72;3.88;;;;;;;;;;5013641;28;20049;-68
2022/01/12 01:33:59;;;;;;;;;;;;;;;;;;5010943;28;20087;-67
2022/01/12 01:36:28;;;;;;;41.75;4.75;;;;;;;;;;5010025;28;19973;-69
2022/01/12 01:38:55;;;;;;;23.23;2.92;;;;;;;;;;5006386;28;20037;-69
2022/01/12 01:41:22;;;;;;;20.90;2.60;;;;;;;;;;5020644;28;20026;-69
2022/01/12 01:53:18;;;;;;;13.68;2.75;;;;;;;;;;5015711;28;20021;-70
2022/01/12 01:55:00;;;;;;;18.73;3.00;;;;;;;;;;5011316;28;20045;-69
2022/01/12 01:57:27;;;;;;;16.98;2.97;;;;;;;;;;5017862;28;20034;-69
2022/01/12 01:59:54;;;;;;;27.13;4.60;;;;;;;;;;5014571;28;20140;-69
2022/01/12 02:02:22;;;;;;;27.02;2.90;;;;;;;;;;5019841;28;20063;-69
2022/01/12 02:04:49;;;;;;;21.05;2.78;;;;;;;;;;5018578;28;20551;-68
2022/01/12 02:07:16;;;;;;;21.65;2.47;;;;;;;;;;5017305;28;20051;-69
2022/01/12 02:09:43;;;;;;;18.13;3.00;;;;;;;;;;5014607;28;20049;-68
2022/01/12 02:12:12;;;;;;;17.50;2.50;;;;;;;;;;5010257;28;20453;-69
2022/01/12 02:14:40;;;;;;;24.50;2.42;;;;;;;;;;5022866;28;20026;-69
2022/01/12 02:17:17;;;;;;;29.33;2.63;;;;;;;;;;5011858;28;21344;-67
2022/01/12 02:36:43;;;;;;;44.97;4.07;;;;;;;;;;5006805;28;20114;-67
2022/01/12 02:41:55;;;;;;;44.78;3.53;;;;;;;;;;5028276;28;20440;-67
2022/01/12 02:55:23;;;;;;;39.63;3.92;;;;;;;;;;5020295;28;20036;-67
2022/01/12 02:57:51;;;;;;;37.08;3.58;;;;;;;;;;5016476;28;20017;-67
2022/01/12 03:00:20;;;;;;;31.10;2.92;;;;;;;;;;5019518;28;20379;-67
2022/01/12 03:02:51;;;;;;;33.80;3.55;;;;;;;;;;5017389;28;20364;-67
2022/01/12 03:08:19;;;;;;;38.35;3.80;;;;;;;;;;5013341;28;20048;-68
2022/01/12 03:10:47;;;;;;;37.53;4.50;;;;;;;;;;5019234;28;20021;-67
2022/01/12 03:13:14;;;;;;;34.65;3.08;;;;;;;;;;5023951;28;20411;-68
2022/01/12 03:15:42;;;;;;;26.48;3.75;;;;;;;;;;5022344;28;20029;-66
2022/01/12 03:18:09;;;;;;;29.13;2.97;;;;;;;;;;5020819;28;20054;-67
2022/01/12 03:20:38;;;;;;;33.20;2.88;;;;;;;;;;5020248;28;20096;-67
2022/01/12 03:23:05;;;;;;;26.05;2.63;;;;;;;;;;5026854;28;20013;-68
2022/01/12 03:25:33;;;;;;;61.75;4.07;;;;;;;;;;5027361;28;20025;-68
2022/01/12 03:28:03;;;;;;;34.55;3.45;;;;;;;;;;5007214;28;20055;-67
2022/01/12 03:30:37;;;;;;;36.47;3.40;;;;;;;;;;5027147;28;20021;-67
2022/01/12 03:33:17;;;;;;;27.25;3.70;;;;;;;;;;4999597;28;20136;-67
2022/01/12 03:36:12;;;;;;;27.83;2.40;;;;;;;;;;5013688;28;20079;-67
2022/01/12 03:38:37;;;;;;;25.73;3.90;;;;;;;;;;5013132;28;20030;-67
2022/01/12 03:41:04;;;;;;;34.28;3.03;;;;;;;;;;5013692;28;20030;-68
2022/01/12 03:43:31;;;;;;;23.08;2.63;;;;;;;;;;5015043;28;20018;-68
2022/01/12 03:45:59;;;;;;;42.20;2.90;;;;;;;;;;5018604;28;20055;-68
2022/01/12 03:48:26;;;;;;;29.45;2.75;;;;;;;;;;5015654;28;20022;-68
2022/01/12 03:50:55;;;;;;;17.52;2.65;;;;;;;;;;5015668;28;20496;-68
2022/01/12 03:53:22;;;;;;;27.50;3.72;;;;;;;;;;5015900;28;20046;-68
2022/01/12 03:55:49;;;;;;;22.83;2.70;;;;;;;;;;5013168;28;20018;-68
2022/01/12 03:58:16;;;;;;;23.88;2.38;;;;;;;;;;5013226;28;20030;-69
2022/01/12 04:00:44;;;;;;;20.10;2.15;;;;;;;;;;5014038;28;20042;-68
2022/01/12 04:03:13;;;;;;;26.42;1.98;;;;;;;;;;5022296;28;20032;-68
2022/01/12 04:08:18;;;;;;;34.65;3.58;;;;;;;;;;5026032;28;20104;-68
2022/01/12 04:08:26;;;;;;;19.77;2.63;;;;;;;;;;5013176;28;20141;-68
2022/01/12 04:10:55;;;;;;;25.38;2.78;;;;;;;;;;5013709;28;20105;-68
2022/01/12 04:13:24;;;;;;;23.85;2.65;;;;;;;;;;5013636;28;20056;-68
2022/01/12 04:15:55;;;;;;;32.33;3.00;;;;;;;;;;5013137;28;20018;-69
2022/01/12 04:18:22;;;;;;;26.45;2.70;;;;;;;;;;5033089;28;20037;-69
2022/01/12 04:20:50;;;;;;;21.20;4.38;;;;;;;;;;5033203;28;20033;-68
2022/01/12 04:23:21;;;;;;;16.00;2.03;;;;;;;;;;5033326;28;20397;-68
2022/01/12 04:25:56;;;;;;;16.98;2.15;;;;;;;;;;5033284;28;20029;-69
2022/01/12 04:28:23;;;;;;;21.77;2.60;;;;;;;;;;5025882;28;20225;-69
2022/01/12 04:30:51;;;;;;;26.73;1.98;;;;;;;;;;5033357;28;20052;-68
2022/01/12 04:33:18;;;;;;;23.15;2.20;;;;;;;;;;5032437;28;20029;-69
2022/01/12 04:35:48;;;;;;;29.27;2.55;;;;;;;;;;5015276;28;20056;-70
2022/01/12 04:38:16;;;;;;;29.13;3.05;;;;;;;;;;5032953;28;20037;-68
2022/01/12 04:40:44;;;;;;;16.33;2.05;;;;;;;;;;5032821;28;20041;-68
2022/01/12 04:48:49;;;;;;;20.27;2.55;;;;;;;;;;4993473;28;20069;-68
2022/01/12 04:51:17;;;;;;;34.95;2.95;;;;;;;;;;4993113;28;20018;-69
2022/01/12 04:53:44;;;;;;;23.60;2.75;;;;;;;;;;4993040;28;20029;-68
2022/01/12 04:56:11;;;;;;;29.48;3.55;;;;;;;;;;4992401;28;20029;-68
2022/01/12 04:58:38;;;;;;;22.65;2.00;;;;;;;;;;4993096;28;20035;-68
2022/01/12 05:01:10;;;;;;;21.98;3.03;;;;;;;;;;4992191;28;20049;-68
2022/01/12 05:09:44;;;;;;;26.92;2.83;;;;;;;;;;4919699;29;20036;-68
2022/01/12 05:15:08;;;;;;;27.90;2.80;;;;;;;;;;4992825;28;20521;-68
2022/01/12 05:17:35;;;;;;;22.35;2.97;;;;;;;;;;4992753;28;20030;-68
2022/01/12 05:20:03;;;;;;;21.15;2.80;;;;;;;;;;4991436;28;20449;-68
2022/01/12 05:22:30;;;;;;;17.88;2.67;;;;;;;;;;4992342;28;20023;-67
2022/01/12 05:24:57;;;;;;;21.30;2.33;;;;;;;;;;4992674;28;20490;-68
2022/01/12 05:27:24;;;;;;;15.82;2.42;;;;;;;;;;4991309;28;20030;-68
2022/01/12 05:29:51;;;;;;;19.13;2.03;;;;;;;;;;4992419;28;20074;-68
2022/01/12 05:32:18;;;;;;;17.75;2.08;;;;;;;;;;4992080;28;20065;-68
2022/01/12 05:34:45;;;;;;;18.90;2.88;;;;;;;;;;4992500;28;20022;-68
2022/01/12 05:37:12;;;;;;;24.95;2.97;;;;;;;;;;4991109;28;20122;-68
2022/01/12 05:39:39;;;;;;;22.50;2.67;;;;;;;;;;4992194;28;20038;-68
2022/01/12 05:42:06;;;;;;;19.98;2.45;;;;;;;;;;4991965;28;20036;-68
2022/01/12 05:44:35;;;;;;;23.42;2.40;;;;;;;;;;4975238;28;20047;-68
2022/01/12 05:47:05;;;;;;;21.15;2.60;;;;;;;;;;4953308;29;20031;-69
2022/01/12 05:49:36;;;;;;;49.83;2.75;;;;;;;;;;4953131;29;20058;-67
2022/01/12 05:52:04;;;;;;;24.58;2.28;;;;;;;;;;4952406;29;20022;-68
2022/01/12 05:54:31;;;;;;;21.08;1.90;;;;;;;;;;4953570;29;20027;-68
2022/01/12 05:56:58;;;;;;;20.23;2.28;;;;;;;;;;4953278;29;20019;-68
2022/01/12 05:59:25;;;;;;;23.17;1.98;;;;;;;;;;4952909;29;20035;-69
2022/01/12 06:01:52;;;;;;;16.38;2.50;;;;;;;;;;4952304;29;20027;-68
2022/01/12 06:04:19;;;;;;;21.05;2.38;;;;;;;;;;4952981;29;20038;-69
2022/01/12 06:06:47;;;;;;;14.40;2.30;;;;;;;;;;4953192;29;20019;-68
2022/01/12 06:09:14;;;;;;;22.40;2.17;;;;;;;;;;4952868;28;20078;-69
2022/01/12 06:11:41;;;;;;;17.90;1.95;;;;;;;;;;4952702;29;20105;-69
2022/01/12 06:14:08;;;;;;;15.43;2.38;;;;;;;;;;4953033;29;20054;-68
2022/01/12 06:16:35;;;;;;;18.02;1.52;;;;;;;;;;4958895;28;20023;-69
2022/01/12 06:19:02;;;;;;;12.88;2.40;;;;;;;;;;4971961;28;20117;-68
2022/01/12 06:21:29;;;;;;;18.95;2.70;;;;;;;;;;4971048;28;20022;-69
2022/01/12 06:23:56;;;;;;;19.65;1.98;;;;;;;;;;4972232;28;20398;-68
2022/01/12 06:26:26;;;;;;;16.50;1.98;;;;;;;;;;4972447;28;20030;-68
2022/01/12 06:29:14;;;;;;;16.80;2.10;;;;;;;;;;4959750;28;20023;-68
2022/01/12 06:31:41;;;;;;;14.18;2.00;;;;;;;;;;4971579;28;20066;-69
2022/01/12 06:34:08;;;;;;;14.30;1.90;;;;;;;;;;4971911;28;20023;-68
2022/01/12 06:36:35;;;;;;;13.20;1.98;;;;;;;;;;4972731;28;20027;-68
2022/01/12 06:39:02;;;;;;;19.75;1.92;;;;;;;;;;4972316;28;20063;-68
2022/01/12 06:41:29;;;;;;;16.30;2.40;;;;;;;;;;4972327;28;20530;-68
2022/01/12 06:43:56;;;;;;;19.92;2.22;;;;;;;;;;4987197;28;20026;-69
2022/01/12 06:46:28;;;;;;;19.52;2.33;;;;;;;;;;4972605;28;20543;-68
2022/01/12 06:48:55;;;;;;;23.70;4.50;;;;;;;;;;4972596;28;20110;-69
2022/01/12 06:51:22;;;;;;;23.35;3.00;;;;;;;;;;4972487;28;20031;-69
2022/01/12 06:53:49;;;;;;;17.55;2.60;;;;;;;;;;4963369;28;20035;-69
2022/01/12 06:56:17;;;;;;;14.43;2.70;;;;;;;;;;4953933;28;20063;-69
2022/01/12 06:58:45;;;;;;;12.75;2.28;;;;;;;;;;4957188;29;20412;-68
2022/01/12 07:01:12;;;;;;;17.27;2.63;;;;;;;;;;4956300;29;20114;-68
2022/01/12 07:03:39;;;;;;;18.42;2.97;;;;;;;;;;4956290;29;20439;-69
2022/01/12 07:06:06;;;;;;;16.27;2.58;;;;;;;;;;4957037;29;20042;-69
2022/01/12 07:08:34;;;;;;;13.23;2.70;;;;;;;;;;4956824;29;20040;-69
2022/01/12 07:11:01;;;;;;;17.05;2.70;;;;;;;;;;4955341;28;20035;-69
2022/01/12 07:13:29;;;;;;;16.60;2.63;;;;;;;;;;4956154;29;20423;-69
2022/01/12 07:15:56;;;;;;;19.65;2.45;;;;;;;;;;4956290;29;20589;-69
2022/01/12 07:18:25;;;;;;;13.82;1.73;;;;;;;;;;4956524;29;20379;-68
2022/01/12 07:20:52;;;;;;;12.15;1.83;;;;;;;;;;4955827;29;20042;-69
2022/01/12 07:23:19;;;;;;;13.18;2.20;;;;;;;;;;4954512;28;20038;-70
2022/01/12 07:25:46;;;;;;;50.45;3.55;;;;;;;;;;4955523;29;20484;-69
2022/01/12 07:28:13;;;;;;;12.40;2.13;;;;;;;;;;4955179;29;20020;-70
2022/01/12 07:30:40;;;;;;;10.32;1.42;;;;;;;;;;4956021;29;20573;-69
2022/01/12 07:33:07;;;;;;;21.27;1.73;;;;;;;;;;4955434;28;20130;-70
2022/01/12 07:35:34;;;;;;;14.52;2.55;;;;;;;;;;4971167;28;20027;-69
2022/01/12 07:38:01;;;;;;;14.35;2.17;;;;;;;;;;4956218;29;20038;-69
2022/01/12 07:40:29;;;;;;;14.95;1.85;;;;;;;;;;4956178;29;20039;-69
2022/01/12 07:42:57;;;;;;;13.35;2.20;;;;;;;;;;4955536;29;20139;-68
2022/01/12 07:45:24;;;;;;;16.90;2.00;;;;;;;;;;4955920;28;20118;-68
2022/01/12 07:47:51;;;;;;;14.50;1.92;;;;;;;;;;4955577;29;20686;-68
2022/01/12 07:50:18;;;;;;;13.30;1.83;;;;;;;;;;4970896;28;20479;-68
2022/01/12 07:52:45;;;;;;;13.48;1.73;;;;;;;;;;4956065;29;20031;-68
2022/01/12 07:55:12;;;;;;;21.95;2.42;;;;;;;;;;4955965;29;20027;-69
2022/01/12 07:57:42;;;;;;;14.02;2.30;;;;;;;;;;4955698;29;20066;-69
2022/01/12 08:00:09;;;;;;;13.45;1.50;;;;;;;;;;4955950;29;20050;-69
2022/01/12 08:02:36;;;;;;;9.85;1.45;;;;;;;;;;4970544;28;20023;-69
2022/01/12 08:05:04;;;;;;;17.63;2.08;;;;;;;;;;4955221;29;20054;-69
2022/01/12 08:07:35;;;;;;;15.68;1.70;;;;;;;;;;4955466;28;20062;-68
2022/01/12 08:10:04;;;;;;;16.17;2.03;;;;;;;;;;4955826;29;20034;-69
2022/01/12 08:12:31;;;;;;;17.83;2.55;;;;;;;;;;4969846;28;20034;-68
2022/01/12 08:14:58;;;;;;;9.68;1.98;;;;;;;;;;4955173;29;20031;-68
2022/01/12 08:17:25;;;;;;;14.95;2.40;;;;;;;;;;4955592;29;20046;-69
2022/01/12 08:19:55;;;;;;;12.82;1.95;;;;;;;;;;4970350;28;20031;-68
2022/01/12 08:22:22;;;;;;;10.80;1.52;;;;;;;;;;4954615;29;20019;-68
2022/01/12 08:24:49;;;;;;;11.20;1.85;;;;;;;;;;4955515;29;20047;-68
2022/01/12 08:27:16;;;;;;;10.20;2.42;;;;;;;;;;4954897;29;20078;-68
2022/01/12 08:29:43;;;;;;;27.05;2.20;;;;;;;;;;4955276;29;20479;-69
2022/01/12 08:32:11;;;;;;;13.13;1.90;;;;;;;;;;4955413;29;20027;-68
2022/01/12 08:34:38;;;;;;;28.67;2.70;;;;;;;;;;4968777;28;20057;-68
2022/01/12 08:37:05;;;;;;;19.73;1.52;;;;;;;;;;4955334;29;20020;-69
2022/01/12 08:39:32;;;;;;;15.60;2.85;;;;;;;;;;4954706;29;20047;-69
2022/01/12 08:41:59;;;;;;;26.80;2.92;;;;;;;;;;4954577;29;20030;-69
2022/01/12 08:44:26;;;;;;;17.75;2.30;;;;;;;;;;4955029;28;20073;-69
2022/01/12 08:46:53;;;;;;;22.15;2.40;;;;;;;;;;4955493;29;20031;-68
2022/01/12 08:49:21;;;;;;;18.60;2.08;;;;;;;;;;4957163;28;20062;-69
2022/01/12 08:51:48;;;;;;;20.77;2.30;;;;;;;;;;4973870;28;20070;-68
2022/01/12 08:54:15;;;;;;;30.48;3.13;;;;;;;;;;4973758;28;20046;-68
2022/01/12 08:56:42;;;;;;;19.40;2.65;;;;;;;;;;4974443;28;20383;-69
2022/01/12 08:59:09;;;;;;;19.45;2.17;;;;;;;;;;4974126;28;20039;-69
2022/01/12 09:01:36;;;;;;;32.88;6.05;;;;;;;;;;4974031;28;20086;-68
2022/01/12 09:04:04;;;;;;;37.40;3.60;;;;;;;;;;4973359;28;20022;-68
2022/01/12 09:06:31;;;;;;;36.45;3.88;;;;;;;;;;4973994;28;20497;-69
2022/01/12 09:08:58;;;;;;;38.25;4.93;;;;;;;;;;4972793;28;20022;-68
2022/01/12 09:11:25;;;;;;;37.30;4.78;;;;;;;;;;4956068;28;20380;-68
2022/01/12 09:13:52;;;;;;;58.53;7.53;;;;;;;;;;4953593;29;20058;-68
2022/01/12 09:16:19;;;;;;;46.38;5.68;;;;;;;;;;4953344;29;20118;-69
2022/01/12 09:18:46;;;;;;;34.13;5.85;;;;;;;;;;4953420;28;20040;-68
2022/01/12 09:21:13;;;;;;;52.08;5.80;;;;;;;;;;4958698;28;20062;-68
2022/01/12 09:23:43;;;;;;;44.20;4.03;;;;;;;;;;4972726;28;20038;-68
2022/01/12 09:26:10;;;;;;;25.85;3.28;;;;;;;;;;4973479;28;20022;-68
2022/01/12 09:28:38;;;;;;;29.08;2.95;;;;;;;;;;4973358;28;20050;-69
2022/01/12 09:31:05;;;;;;;21.42;3.85;;;;;;;;;;4972440;28;20098;-69
2022/01/12 09:33:32;;;;;;;32.28;3.33;;;;;;;;;;4972407;28;20033;-68
2022/01/12 09:36:00;;;;;;;21.70;2.92;;;;;;;;;;4973482;28;20102;-68
2022/01/12 09:38:27;;;;;;;24.20;3.65;;;;;;;;;;4973517;28;20042;-69
2022/01/12 09:40:54;;;;;;;34.42;3.80;;;;;;;;;;4973293;28;20106;-68
2022/01/12 09:43:28;;;;;;;31.33;3.75;;;;;;;;;;4972783;28;20030;-69
2022/01/12 09:45:55;;;;;;;26.05;2.60;;;;;;;;;;4971289;28;20054;-70
2022/01/12 09:48:23;;;;;;;21.13;3.63;;;;;;;;;;4973146;28;20035;-70
2022/01/12 09:50:58;;;;;;;24.58;3.00;;;;;;;;;;4972210;28;20027;-69
2022/01/12 09:53:25;;;;;;;31.00;3.63;;;;;;;;;;4967777;28;20045;-70
2022/01/12 09:55:52;;;;;;;22.25;2.47;;;;;;;;;;4953911;29;20031;-70
2022/01/12 09:58:19;;;;;;;33.13;3.50;;;;;;;;;;4959482;28;20031;-69
2022/01/12 10:01:06;;;;;;;27.95;4.22;;;;;;;;;;4968100;28;20098;-69
2022/01/12 10:03:33;;;;;;;43.35;4.15;;;;;;;;;;4972364;28;20117;-70
2022/01/12 10:06:12;;;;;;;26.40;4.20;;;;;;;;;;4972626;28;20038;-69
2022/01/12 10:08:39;;;;;;;31.23;3.13;;;;;;;;;;4959044;28;20027;-70
2022/01/12 10:11:14;;;;;;;27.83;3.55;;;;;;;;;;4953068;28;20031;-69
2022/01/12 10:13:41;;;;;;;37.42;4.10;;;;;;;;;;4953644;28;20110;-69
2022/01/12 10:16:16;;;;;;;26.48;3.60;;;;;;;;;;4952672;29;20027;-70
2022/01/12 10:18:47;;;;;;;24.77;3.78;;;;;;;;;;4953477;29;20031;-70
2022/01/12 10:21:34;;;;;;;27.98;3.38;;;;;;;;;;4953112;29;20027;-69
2022/01/12 10:24:18;;;;;;;30.48;3.78;;;;;;;;;;4952594;29;20027;-68
2022/01/12 10:26:48;;;;;;;39.20;4.45;;;;;;;;;;4953005;29;20054;-69
2022/01/12 10:29:17;;;;;;;38.28;4.40;;;;;;;;;;4952992;29;20031;-69
2022/01/12 10:31:47;;;;;;;31.10;5.22;;;;;;;;;;4953063;28;20060;-68
2022/01/12 10:34:14;;;;;;;39.15;4.85;;;;;;;;;;4952700;29;20055;-69
2022/01/12 10:36:42;;;;;;;34.95;5.15;;;;;;;;;;4952766;29;20502;-68
2022/01/12 10:39:10;;;;;;;35.10;4.63;;;;;;;;;;4960934;28;20035;-68
2022/01/12 10:41:41;;;;;;;30.00;3.80;;;;;;;;;;4953234;29;20075;-68
2022/01/12 10:44:19;;;;;;;25.10;3.33;;;;;;;;;;4951283;28;20431;-69
2022/01/12 10:46:45;;;;;;;31.17;4.55;;;;;;;;;;4952594;29;20038;-69
2022/01/12 10:49:18;;;;;;;34.78;5.05;;;;;;;;;;4952857;29;20392;-69
2022/01/12 10:51:54;;;;;;;32.45;6.30;;;;;;;;;;4953291;29;20035;-69
2022/01/12 10:54:21;;;;;;;701.72;625.40;;;;;;;;;;4951009;29;20030;-70
2022/01/12 10:56:48;;;;;;;361.10;327.58;;;;;;;;;;4952725;29;20102;-69
2022/01/12 10:59:19;;;;;;;35.90;4.13;;;;;;;;;;4966857;28;20031;-70
2022/01/12 11:01:46;;;;;;;54.72;5.25;;;;;;;;;;4972326;28;20498;-70
2022/01/12 11:04:13;;;;;;;44.15;4.18;;;;;;;;;;4971993;28;20509;-70
2022/01/12 11:06:41;;;;;;;47.53;4.43;;;;;;;;;;4970956;28;20118;-69
2022/01/12 11:09:08;;;;;;;39.15;4.90;;;;;;;;;;4952783;29;20519;-69
2022/01/12 11:11:35;;;;;;;95.88;28.63;;;;;;;;;;4951465;29;20484;-69
2022/01/12 11:14:02;;;;;;;40.97;4.47;;;;;;;;;;4952769;29;20082;-68
2022/01/12 11:16:29;;;;;;;74.13;10.65;;;;;;;;;;4952439;29;20035;-69
2022/01/12 11:18:57;;;;;;;45.72;6.15;;;;;;;;;;4952443;29;20059;-68
2022/01/12 11:21:24;;;;;;;28.67;3.72;;;;;;;;;;4952588;29;20027;-68
2022/01/12 11:23:51;;;;;;;38.22;5.30;;;;;;;;;;4961488;28;20031;-70
2022/01/12 11:26:21;;;;;;;41.60;4.50;;;;;;;;;;4971754;28;20503;-69
2022/01/12 11:28:51;;;;;;;34.65;4.40;;;;;;;;;;4971768;28;20554;-69
2022/01/12 11:31:23;;;;;;;27.95;3.50;;;;;;;;;;4962823;28;20110;-69
2022/01/12 11:33:50;;;;;;;38.60;3.33;;;;;;;;;;4953204;29;20024;-69
2022/01/12 11:36:23;;;;;;;31.00;5.40;;;;;;;;;;4960221;28;20035;-69
2022/01/12 11:38:51;;;;;;;79.00;66.00;;;;;;;;;;4971563;28;20471;-69
2022/01/12 11:41:23;;;;;;;82.68;19.70;;;;;;;;;;4971990;28;20023;-70
2022/01/12 11:43:53;;;;;;;34.83;4.53;;;;;;;;;;4972345;28;20035;-70
2022/01/12 11:46:22;;;;;;;1428.30;941.58;;;;;;;;;;4955563;29;20026;-70
2022/01/12 11:48:53;;;;;;;194.00;173.70;;;;;;;;;;4955728;29;20063;-69
2022/01/12 11:51:37;;;;;;;487.23;120.40;;;;;;;;;;4971008;28;20054;-68
2022/01/12 11:54:10;;;;;;;118.90;106.30;;;;;;;;;;4955934;29;20070;-70
2022/01/12 11:56:39;;;;;;;32.30;18.33;;;;;;;;;;4956185;29;20503;-68
2022/01/12 11:59:10;;;;;;;48.97;24.27;;;;;;;;;;4955537;29;20035;-70
2022/01/12 12:01:51;;;;;;;41.00;4.47;;;;;;;;;;4955541;29;20129;-68
2022/01/12 12:04:24;;;;;;;31.73;3.97;;;;;;;;;;4969211;28;20038;-68
2022/01/12 12:07:01;;;;;;;46.92;4.13;;;;;;;;;;4993495;28;20049;-68
2022/01/12 12:09:36;;;;;;;36.00;4.43;;;;;;;;;;4993237;28;20030;-68
2022/01/12 12:12:03;;;;;;;45.88;5.18;;;;;;;;;;4993257;28;20026;-68
2022/01/12 12:14:30;;;;;;;56.03;5.20;;;;;;;;;;4981554;28;20121;-68
2022/01/12 12:16:57;;;;;;;55.63;4.82;;;;;;;;;;4989771;28;20094;-68
2022/01/12 12:19:24;;;;;;;37.83;3.47;;;;;;;;;;4989706;28;20030;-68
2022/01/12 12:21:51;;;;;;;24.90;3.05;;;;;;;;;;4991709;28;20034;-69
2022/01/12 12:24:19;;;;;;;54.17;5.25;;;;;;;;;;4992401;28;20634;-68
2022/01/12 12:26:48;;;;;;;57.25;5.70;;;;;;;;;;4988019;28;20050;-69
2022/01/12 12:29:19;;;;;;;63.20;5.90;;;;;;;;;;4991718;28;20061;-68
2022/01/12 12:31:49;;;;;;;52.30;6.10;;;;;;;;;;4989897;28;20482;-68
2022/01/12 12:34:16;;;;;;;58.53;8.18;;;;;;;;;;4991215;28;20038;-69
2022/01/12 12:36:43;;;;;;;39.47;5.68;;;;;;;;;;4986933;28;20435;-68
2022/01/12 12:39:14;;;;;;;46.30;7.30;;;;;;;;;;4990602;28;20092;-67
2022/01/12 12:41:43;;;;;;;35.13;4.78;;;;;;;;;;4992491;28;20095;-68
2022/01/12 12:44:26;;;;;;;42.83;5.07;;;;;;;;;;4992113;28;20038;-67
2022/01/12 12:47:05;;;;;;;54.97;5.13;;;;;;;;;;4991472;28;20034;-68
2022/01/12 12:49:32;;;;;;;32.70;4.03;;;;;;;;;;4992102;28;20042;-70
2022/01/12 12:52:02;;;;;;;37.88;4.43;;;;;;;;;;4989951;28;20033;-68
2022/01/12 12:54:29;;;;;;;34.58;3.95;;;;;;;;;;4993244;28;20081;-70
2022/01/12 12:57:10;;;;;;;40.45;4.55;;;;;;;;;;4992984;28;20035;-68
2022/01/12 12:59:38;;;;;;;47.63;4.72;;;;;;;;;;4993225;28;20516;-70
2022/01/12 13:02:12;;;;;;;69.72;5.70;;;;;;;;;;4991630;28;20160;-69
2022/01/12 13:04:39;;;;;;;71.32;6.55;;;;;;;;;;4992065;28;20085;-70
2022/01/12 13:07:13;;;;;;;54.47;5.15;;;;;;;;;;4991568;28;20087;-69
2022/01/12 13:09:41;;;;;;;53.13;5.60;;;;;;;;;;4992941;28;20023;-68
2022/01/12 13:12:08;;;;;;;39.05;4.68;;;;;;;;;;4993098;28;20026;-68
2022/01/12 13:14:42;;;;;;;61.38;6.63;;;;;;;;;;4991293;28;20641;-68
2022/01/12 13:17:09;;;;;;;53.03;7.07;;;;;;;;;;4992139;28;20030;-68
2022/01/12 13:22:26;;;;;;;51.60;5.53;;;;;;;;;;4992903;28;20065;-70
2022/01/12 13:24:53;;;;;;;42.25;4.93;;;;;;;;;;4992844;28;20018;-69
2022/01/12 13:27:20;;;;;;;58.33;5.65;;;;;;;;;;4989195;28;20372;-68
2022/01/12 13:29:49;;;;;;;71.50;6.95;;;;;;;;;;4992275;28;20025;-69
2022/01/12 13:32:16;;;;;;;57.67;5.20;;;;;;;;;;4992058;28;20797;-70
2022/01/12 13:34:54;;;;;;;45.90;5.00;;;;;;;;;;4991374;28;20034;-71
2022/01/12 13:37:21;;;;;;;50.40;6.40;;;;;;;;;;4991052;28;20525;-70
2022/01/12 13:39:49;;;;;;;55.50;5.78;;;;;;;;;;4989924;28;20505;-68
2022/01/12 13:42:16;;;;;;;31.98;4.05;;;;;;;;;;4992194;28;20253;-71
2022/01/12 13:44:43;;;;;;;33.45;5.13;;;;;;;;;;4974682;28;20410;-68
2022/01/12 13:47:25;;;;;;;44.60;6.82;;;;;;;;;;4992058;28;20106;-68
2022/01/12 13:50:12;;;;;;;70.68;43.00;;;;;;;;;;4990180;28;20026;-68
2022/01/12 13:52:39;;;;;;;46.72;8.60;;;;;;;;;;4990153;28;20018;-69
2022/01/12 13:55:10;;;;;;;389.52;348.10;;;;;;;;;;4988921;28;20026;-70
2022/01/12 13:57:38;;;;;;;111.63;98.30;;;;;;;;;;4990403;28;20018;-70
2022/01/12 14:00:06;;;;;;;91.40;79.25;;;;;;;;;;4990795;28;20040;-71
2022/01/12 14:02:42;;;;;;;58.42;24.15;;;;;;;;;;4988432;28;20133;-67
2022/01/12 14:05:16;;;;;;;40.20;20.15;;;;;;;;;;4990184;28;20018;-68
2022/01/12 14:07:58;;;;;;;72.57;45.03;;;;;;;;;;4991158;28;20093;-71
2022/01/12 14:10:25;;;;;;;623.03;517.20;;;;;;;;;;4991883;28;20069;-69
2022/01/12 14:12:53;;;;;;;124.10;103.13;;;;;;;;;;4985994;28;20027;-68
2022/01/12 14:15:27;;;;;;;65.75;23.63;;;;;;;;;;4956271;28;20042;-69
2022/01/12 14:17:59;;;;;;;413.45;368.73;;;;;;;;;;4968199;28;20393;-70
2022/01/12 14:20:36;;;;;;;59.53;8.35;;;;;;;;;;4963431;28;20066;-71
2022/01/12 14:23:07;;;;;;;43.38;5.03;;;;;;;;;;4961072;28;20637;-70
2022/01/12 14:25:35;;;;;;;38.60;5.90;;;;;;;;;;4964793;28;20101;-70
2022/01/12 14:28:03;;;;;;;53.40;5.88;;;;;;;;;;4965714;28;20021;-69
2022/01/12 14:30:30;;;;;;;69.95;44.42;;;;;;;;;;4955919;28;20035;-68
2022/01/12 14:32:57;;;;;;;73.20;34.58;;;;;;;;;;4957673;28;20038;-68
2022/01/12 14:35:25;;;;;;;191.27;170.55;;;;;;;;;;4958043;28;20050;-69
2022/01/12 14:37:53;;;;;;;741.50;591.22;;;;;;;;;;4959576;28;20031;-70
2022/01/12 14:40:21;;;;;;;1524.35;777.10;;;;;;;;;;4963449;28;20376;-69
2022/01/12 14:42:50;;;;;;;1999.90;999.90;;;;;;;;;;4955379;28;20102;-69
2022/01/12 14:45:19;;;;;;;1999.90;999.90;;;;;;;;;;4954852;28;20055;-69
2022/01/12 14:47:46;;;;;;;154.90;127.03;;;;;;;;;;4954548;28;20039;-70
2022/01/12 14:50:13;;;;;;;1871.72;830.80;;;;;;;;;;4962643;28;20030;-68
2022/01/12 14:52:44;;;;;;;524.53;442.15;;;;;;;;;;4959006;28;20024;-70
2022/01/12 14:55:11;;;;;;;241.82;215.60;;;;;;;;;;4956134;28;20101;-70
2022/01/12 14:57:39;;;;;;;954.03;717.65;;;;;;;;;;4955639;28;20483;-71
2022/01/12 15:00:08;;;;;;;51.33;16.75;;;;;;;;;;4962566;28;20043;-70
2022/01/12 15:02:35;;;;;;;306.17;271.15;;;;;;;;;;4962425;28;20047;-70
2022/01/12 15:05:02;;;;;;;391.40;344.75;;;;;;;;;;4961063;28;20038;-71
2022/01/12 15:07:30;;;;;;;1324.35;785.80;;;;;;;;;;4962520;28;20629;-72
2022/01/12 15:09:57;;;;;;;376.88;335.65;;;;;;;;;;4964381;28;20037;-69
2022/01/12 15:12:31;;;;;;;540.63;452.27;;;;;;;;;;4969456;28;20034;-70
2022/01/12 15:14:59;;;;;;;747.65;589.92;;;;;;;;;;4965614;28;20062;-70
2022/01/12 15:17:33;;;;;;;294.95;263.67;;;;;;;;;;4966444;28;20113;-71
2022/01/12 15:20:02;;;;;;;86.78;63.08;;;;;;;;;;4964796;28;20050;-71
2022/01/12 15:22:29;;;;;;;109.47;81.50;;;;;;;;;;4959110;28;20046;-70
2022/01/12 15:24:56;;;;;;;37.75;5.18;;;;;;;;;;4966527;28;20031;-70
2022/01/12 15:27:23;;;;;;;45.22;6.15;;;;;;;;;;4968393;28;20027;-72
2022/01/12 15:29:51;;;;;;;40.50;8.45;;;;;;;;;;4963289;28;20092;-70
2022/01/12 15:32:18;;;;;;;77.10;16.85;;;;;;;;;;4959356;28;20035;-71
2022/01/12 15:34:45;;;;;;;153.68;122.97;;;;;;;;;;4966696;28;20027;-70
2022/01/12 15:37:12;;;;;;;331.80;293.02;;;;;;;;;;4968955;28;20490;-72
2022/01/12 15:39:39;;;;;;;276.52;246.43;;;;;;;;;;4964333;28;20502;-71
2022/01/12 15:42:06;;;;;;;81.53;13.55;;;;;;;;;;4963127;28;20027;-71
2022/01/12 15:44:33;;;;;;;186.90;89.45;;;;;;;;;;4959721;28;20047;-71
2022/01/12 15:47:00;;;;;;;639.88;538.25;;;;;;;;;;4962253;28;20035;-71
2022/01/12 15:49:29;;;;;;;1243.88;765.47;;;;;;;;;;4966639;28;20063;-71
2022/01/12 15:51:56;;;;;;;751.60;587.60;;;;;;;;;;4966245;28;20110;-71
2022/01/12 15:54:24;;;;;;;947.65;704.33;;;;;;;;;;4958715;28;20032;-71
2022/01/12 15:56:51;;;;;;;459.38;384.30;;;;;;;;;;4964569;28;20022;-71